createdAt,value
2017-12-24T00:02:04.427Z,40.56
2017-12-24T00:04:31.905Z,40.54
2017-12-24T00:06:59.451Z,40.43
2017-12-24T00:09:26.966Z,40.48
2017-12-24T00:11:54.446Z,40.44
2017-12-24T00:14:21.994Z,40.39
2017-12-24T00:16:49.576Z,40.34
2017-12-24T00:19:17.236Z,40.29
2017-12-24T00:21:44.796Z,40.26
2017-12-24T00:24:12.315Z,40.29
2017-12-24T00:26:39.869Z,40.19
2017-12-24T00:29:07.432Z,40.14
2017-12-24T00:31:35.021Z,40.21
2017-12-24T00:34:02.504Z,40.14
2017-12-24T00:36:29.985Z,40.07
2017-12-24T00:38:57.503Z,40.02
2017-12-24T00:41:24.981Z,39.96
2017-12-24T00:43:52.465Z,39.98
2017-12-24T00:46:20.056Z,39.92
2017-12-24T00:48:47.605Z,39.88
2017-12-24T00:51:15.090Z,39.93
2017-12-24T00:53:42.666Z,39.86
2017-12-24T00:56:10.219Z,39.86
2017-12-24T00:58:37.768Z,39.80
2017-12-24T01:01:05.277Z,39.69
2017-12-24T01:03:32.762Z,39.76
2017-12-24T01:06:00.245Z,39.73
2017-12-24T01:08:27.831Z,39.71
2017-12-24T01:10:55.367Z,39.68
2017-12-24T01:13:22.858Z,39.70
2017-12-24T01:15:50.374Z,39.67
2017-12-24T01:18:17.853Z,39.64
2017-12-24T01:20:45.408Z,39.59
2017-12-24T01:23:12.921Z,39.63
2017-12-24T01:25:40.467Z,39.56
2017-12-24T01:28:08.012Z,39.49
2017-12-24T01:30:35.603Z,39.47
2017-12-24T01:33:03.151Z,39.44
2017-12-24T01:35:30.630Z,39.40
2017-12-24T01:37:58.149Z,39.38
2017-12-24T01:40:25.627Z,39.33
2017-12-24T01:42:53.122Z,39.29
2017-12-24T01:45:20.642Z,39.30
2017-12-24T01:47:52.053Z,39.23
2017-12-24T01:50:19.612Z,39.21
2017-12-24T01:52:47.198Z,39.23
2017-12-24T01:55:14.678Z,39.21
2017-12-24T01:57:42.167Z,39.24
2017-12-24T02:00:09.694Z,39.19
2017-12-24T02:02:37.287Z,39.16
2017-12-24T02:05:04.781Z,39.18
2017-12-24T02:07:32.364Z,39.13
2017-12-24T02:09:59.923Z,39.06
2017-12-24T02:12:27.483Z,39.08
2017-12-24T02:14:55.003Z,39.10
2017-12-24T02:17:22.565Z,39.06
2017-12-24T02:19:50.111Z,39.04
2017-12-24T02:22:17.626Z,39.06
2017-12-24T02:24:45.176Z,39.00
2017-12-24T02:27:12.734Z,38.97
2017-12-24T02:29:40.259Z,38.96
2017-12-24T02:32:07.740Z,38.91
2017-12-24T02:34:35.297Z,38.91
2017-12-24T02:37:02.814Z,38.84
2017-12-24T02:39:30.304Z,38.87
2017-12-24T02:41:57.849Z,38.86
2017-12-24T02:44:25.363Z,38.84
2017-12-24T02:46:52.926Z,38.87
2017-12-24T02:49:20.410Z,38.84
2017-12-24T02:51:48.016Z,38.80
2017-12-24T02:54:15.502Z,38.79
2017-12-24T02:56:43.052Z,38.69
2017-12-24T02:59:10.633Z,38.65
2017-12-24T03:01:38.182Z,38.68
2017-12-24T03:04:05.733Z,38.58
2017-12-24T03:06:33.315Z,38.60
2017-12-24T03:09:00.858Z,38.65
2017-12-24T03:11:28.412Z,38.63
2017-12-24T03:13:55.923Z,38.62
2017-12-24T03:16:23.402Z,38.57
2017-12-24T03:18:50.952Z,38.58
2017-12-24T03:21:18.531Z,38.52
2017-12-24T03:23:46.011Z,38.53
2017-12-24T03:26:13.560Z,38.47
2017-12-24T03:28:41.071Z,38.48
2017-12-24T03:31:08.550Z,38.49
2017-12-24T03:33:36.102Z,38.49
2017-12-24T03:36:03.681Z,38.48
2017-12-24T03:38:31.163Z,38.44
2017-12-24T03:40:58.657Z,38.38
2017-12-24T03:43:26.243Z,38.46
2017-12-24T03:45:53.801Z,38.41
2017-12-24T03:48:21.364Z,38.41
2017-12-24T03:50:48.944Z,38.41
2017-12-24T03:53:16.493Z,38.37
2017-12-24T03:55:44.043Z,38.39
2017-12-24T03:58:11.631Z,38.34
2017-12-24T04:00:39.117Z,38.33
2017-12-24T04:03:06.679Z,38.27
2017-12-24T04:05:34.259Z,38.31
2017-12-24T04:08:01.813Z,38.26
2017-12-24T04:10:29.380Z,38.30
2017-12-24T04:12:56.964Z,38.24
2017-12-24T04:15:24.527Z,38.23
2017-12-24T04:17:52.095Z,38.28
2017-12-24T04:20:19.863Z,38.20
2017-12-24T04:22:47.350Z,38.16
2017-12-24T04:25:14.902Z,38.16
2017-12-24T04:27:42.422Z,38.13
2017-12-24T04:30:09.976Z,37.99
2017-12-24T04:32:37.532Z,38.01
2017-12-24T04:35:05.117Z,38.02
2017-12-24T04:37:32.600Z,38.03
2017-12-24T04:40:00.096Z,38.06
2017-12-24T04:42:27.685Z,38.01
2017-12-24T04:44:55.232Z,37.98
2017-12-24T04:47:22.803Z,37.93
2017-12-24T04:49:50.352Z,37.93
2017-12-24T04:52:17.835Z,37.88
2017-12-24T04:54:45.346Z,37.87
2017-12-24T04:57:12.897Z,37.86
2017-12-24T04:59:40.455Z,37.87
2017-12-24T05:02:07.988Z,37.88
2017-12-24T05:04:35.462Z,37.88
2017-12-24T05:07:03.012Z,37.90
2017-12-24T05:09:30.587Z,37.91
2017-12-24T05:11:58.156Z,37.72
2017-12-24T05:14:25.634Z,37.74
2017-12-24T05:16:53.226Z,37.79
2017-12-24T05:19:20.771Z,37.79
2017-12-24T05:21:48.254Z,37.82
2017-12-24T05:24:15.767Z,37.78
2017-12-24T05:26:43.246Z,37.80
2017-12-24T05:29:10.787Z,37.80
2017-12-24T05:31:38.380Z,37.75
2017-12-24T05:34:05.939Z,37.80
2017-12-24T05:36:33.418Z,37.82
2017-12-24T05:39:00.935Z,37.82
2017-12-24T05:41:28.422Z,37.83
2017-12-24T05:43:55.976Z,37.79
2017-12-24T05:46:23.492Z,37.79
2017-12-24T05:48:51.050Z,37.81
2017-12-24T05:51:18.533Z,37.73
2017-12-24T05:53:46.041Z,37.76
2017-12-24T05:56:13.523Z,37.77
2017-12-24T05:58:41.076Z,37.80
2017-12-24T06:01:08.599Z,37.74
2017-12-24T06:03:36.152Z,37.75
2017-12-24T06:06:03.634Z,37.77
2017-12-24T06:08:31.336Z,38.05
2017-12-24T06:10:58.821Z,38.20
2017-12-24T06:13:26.364Z,38.28
2017-12-24T06:15:53.869Z,38.36
2017-12-24T06:18:21.430Z,38.43
2017-12-24T06:20:48.918Z,38.75
2017-12-24T06:23:16.491Z,38.94
2017-12-24T06:25:43.973Z,39.06
2017-12-24T06:28:11.450Z,39.17
2017-12-24T06:30:39.037Z,39.18
2017-12-24T06:33:06.575Z,38.80
2017-12-24T06:35:34.137Z,38.16
2017-12-24T06:38:01.722Z,39.09
2017-12-24T06:40:29.207Z,39.26
2017-12-24T06:42:56.767Z,39.57
2017-12-24T06:45:24.344Z,40.10
2017-12-24T06:47:51.900Z,40.27
2017-12-24T06:50:19.381Z,40.29
2017-12-24T06:52:46.911Z,40.31
2017-12-24T06:55:14.484Z,40.53
2017-12-24T06:57:41.979Z,40.49
2017-12-24T07:00:09.507Z,40.65
2017-12-24T07:02:37.023Z,41.27
2017-12-24T07:05:04.511Z,41.66
2017-12-24T07:07:32.042Z,42.24
2017-12-24T07:09:59.591Z,43.98
2017-12-24T07:12:27.098Z,44.60
2017-12-24T07:14:54.625Z,44.03
2017-12-24T07:17:22.175Z,43.65
2017-12-24T07:19:49.654Z,43.15
2017-12-24T07:22:17.240Z,43.07
2017-12-24T07:24:44.719Z,43.45
2017-12-24T07:27:12.267Z,43.47
2017-12-24T07:29:39.790Z,43.02
2017-12-24T07:32:07.341Z,42.80
2017-12-24T07:34:34.821Z,42.22
2017-12-24T07:37:02.404Z,42.22
2017-12-24T07:39:29.952Z,44.70
2017-12-24T07:41:57.504Z,44.00
2017-12-24T07:44:25.080Z,42.98
2017-12-24T07:46:52.558Z,42.65
2017-12-24T07:49:20.100Z,42.45
2017-12-24T07:51:47.613Z,42.71
2017-12-24T07:54:15.163Z,42.65
2017-12-24T07:56:42.720Z,42.50
2017-12-24T07:59:10.300Z,42.12
2017-12-24T08:01:37.793Z,41.82
2017-12-24T08:04:05.342Z,41.57
2017-12-24T08:06:32.921Z,41.50
2017-12-24T08:09:00.472Z,41.54
2017-12-24T08:11:27.960Z,42.01
2017-12-24T08:13:55.541Z,42.04
2017-12-24T08:16:23.088Z,41.46
2017-12-24T08:18:50.643Z,41.19
2017-12-24T08:21:18.153Z,41.08
2017-12-24T08:23:45.700Z,41.04
2017-12-24T08:26:13.243Z,41.18
2017-12-24T08:28:40.753Z,41.33
2017-12-24T08:31:08.313Z,40.95
2017-12-24T08:33:35.876Z,40.62
2017-12-24T08:36:03.408Z,40.49
2017-12-24T08:38:30.882Z,40.42
2017-12-24T08:40:58.431Z,39.97
2017-12-24T08:43:26.008Z,39.92
2017-12-24T08:45:53.587Z,39.89
2017-12-24T08:48:21.071Z,39.91
2017-12-24T08:50:48.664Z,39.73
2017-12-24T08:53:16.141Z,40.02
2017-12-24T08:55:43.688Z,40.11
2017-12-24T08:58:11.229Z,40.25
2017-12-24T09:00:38.775Z,40.26
2017-12-24T09:03:06.328Z,40.22
2017-12-24T09:05:33.911Z,40.12
2017-12-24T09:08:01.394Z,40.17
2017-12-24T09:10:28.948Z,40.17
2017-12-24T09:12:56.543Z,40.04
2017-12-24T09:15:24.023Z,39.88
2017-12-24T09:17:51.604Z,39.90
2017-12-24T09:20:19.124Z,39.96
2017-12-24T09:22:46.686Z,40.24
2017-12-24T09:25:14.186Z,40.54
2017-12-24T09:27:41.719Z,40.74
2017-12-24T09:30:09.280Z,40.29
2017-12-24T09:32:36.831Z,40.62
2017-12-24T09:35:04.366Z,40.82
2017-12-24T09:37:31.928Z,41.06
2017-12-24T09:39:59.413Z,40.84
2017-12-24T09:42:26.999Z,40.38
2017-12-24T09:44:54.551Z,40.35
2017-12-24T09:47:22.120Z,40.29
2017-12-24T09:49:49.608Z,40.12
2017-12-24T09:52:17.109Z,39.87
2017-12-24T09:54:44.626Z,39.85
2017-12-24T09:57:12.113Z,39.74
2017-12-24T09:59:39.655Z,39.73
2017-12-24T10:02:07.169Z,39.88
2017-12-24T10:04:34.723Z,39.97
2017-12-24T10:07:02.303Z,39.88
2017-12-24T10:09:29.826Z,39.78
2017-12-24T10:11:57.379Z,39.51
2017-12-24T10:14:24.923Z,39.58
2017-12-24T10:16:52.519Z,39.94
2017-12-24T10:19:20.006Z,39.75
2017-12-24T10:21:47.560Z,39.95
2017-12-24T10:24:15.144Z,39.85
2017-12-24T10:26:42.687Z,39.63
2017-12-24T10:29:10.240Z,39.49
2017-12-24T10:31:37.764Z,39.47
2017-12-24T10:34:05.246Z,39.88
2017-12-24T10:36:32.730Z,40.23
2017-12-24T10:39:00.242Z,39.94
2017-12-24T10:41:27.787Z,40.58
2017-12-24T10:43:55.327Z,41.08
2017-12-24T10:46:22.910Z,41.77
2017-12-24T10:48:50.390Z,42.04
2017-12-24T10:51:17.929Z,42.56
2017-12-24T10:53:45.521Z,42.53
2017-12-24T10:56:13.071Z,42.14
2017-12-24T10:58:40.567Z,41.95
2017-12-24T11:01:08.079Z,41.89
2017-12-24T11:03:35.558Z,42.02
2017-12-24T11:06:03.033Z,42.23
2017-12-24T11:08:30.586Z,42.46
2017-12-24T11:10:58.135Z,43.28
2017-12-24T11:13:25.679Z,44.26
2017-12-24T11:15:53.253Z,45.47
2017-12-24T11:18:20.803Z,44.66
2017-12-24T11:20:48.347Z,43.53
2017-12-24T11:23:15.861Z,42.83
2017-12-24T11:25:43.411Z,42.33
2017-12-24T11:28:10.978Z,41.93
2017-12-24T11:30:38.555Z,41.51
2017-12-24T11:33:06.018Z,41.43
2017-12-24T11:35:33.561Z,41.79
2017-12-24T11:38:01.148Z,42.02
2017-12-24T11:40:28.697Z,42.33
2017-12-24T11:42:56.196Z,42.63
2017-12-24T11:45:23.702Z,43.12
2017-12-24T11:47:51.256Z,43.13
2017-12-24T11:50:18.812Z,43.25
2017-12-24T11:52:46.407Z,43.33
2017-12-24T11:55:13.900Z,43.54
2017-12-24T11:57:41.448Z,44.41
2017-12-24T12:00:08.995Z,45.14
2017-12-24T12:02:36.474Z,44.82
2017-12-24T12:05:03.961Z,44.22
2017-12-24T12:07:31.471Z,43.79
2017-12-24T12:09:58.942Z,43.45
2017-12-24T12:12:26.487Z,43.34
2017-12-24T12:14:54.088Z,43.12
2017-12-24T12:17:21.602Z,43.18
2017-12-24T12:19:49.155Z,43.10
2017-12-24T12:22:16.665Z,43.16
2017-12-24T12:24:44.147Z,43.40
2017-12-24T12:27:11.626Z,43.58
2017-12-24T12:29:39.139Z,43.87
2017-12-24T12:32:06.617Z,43.88
2017-12-24T12:34:34.113Z,44.01
2017-12-24T12:37:01.693Z,44.38
2017-12-24T12:39:29.252Z,44.69
2017-12-24T12:41:56.812Z,44.69
2017-12-24T12:44:24.338Z,44.80
2017-12-24T12:46:51.826Z,44.89
2017-12-24T12:49:19.313Z,45.08
2017-12-24T12:51:46.842Z,45.36
2017-12-24T12:54:14.326Z,45.09
2017-12-24T12:56:41.815Z,45.16
2017-12-24T12:59:09.333Z,45.26
2017-12-24T13:01:36.835Z,45.21
2017-12-24T13:04:04.326Z,45.09
2017-12-24T13:06:31.842Z,45.14
2017-12-24T13:08:59.326Z,45.25
2017-12-24T13:11:26.892Z,45.33
2017-12-24T13:13:54.432Z,45.40
2017-12-24T13:16:22.009Z,45.40
2017-12-24T13:18:49.579Z,45.46
2017-12-24T13:21:17.110Z,45.45
2017-12-24T13:23:44.621Z,45.44
2017-12-24T13:26:12.110Z,45.40
2017-12-24T13:28:39.694Z,45.36
2017-12-24T13:31:07.256Z,45.41
2017-12-24T13:33:34.859Z,45.31
2017-12-24T13:36:02.378Z,45.23
2017-12-24T13:38:29.859Z,45.48
2017-12-24T13:40:57.420Z,45.49
2017-12-24T13:43:25.003Z,45.37
2017-12-24T13:45:52.495Z,45.13
2017-12-24T13:48:19.974Z,45.52
2017-12-24T13:50:47.495Z,45.75
2017-12-24T13:53:15.053Z,45.77
2017-12-24T13:55:42.610Z,45.76
2017-12-24T13:58:10.139Z,45.62
2017-12-24T14:00:37.683Z,45.56
2017-12-24T14:03:05.231Z,45.40
2017-12-24T14:05:32.811Z,44.95
2017-12-24T14:08:00.363Z,44.50
2017-12-24T14:10:27.916Z,44.26
2017-12-24T14:12:55.429Z,43.70
2017-12-24T14:15:22.975Z,43.19
2017-12-24T14:17:50.539Z,43.02
2017-12-24T14:20:18.065Z,42.60
2017-12-24T14:22:45.546Z,42.22
2017-12-24T14:25:13.132Z,42.44
2017-12-24T14:27:40.724Z,42.97
2017-12-24T14:30:08.367Z,42.83
2017-12-24T14:32:35.949Z,42.51
2017-12-24T14:35:03.470Z,42.16
2017-12-24T14:37:30.957Z,42.04
2017-12-24T14:39:58.503Z,42.08
2017-12-24T14:42:26.099Z,42.36
2017-12-24T14:44:53.593Z,42.80
2017-12-24T14:47:21.150Z,43.53
2017-12-24T14:49:48.645Z,43.24
2017-12-24T14:52:16.200Z,42.95
2017-12-24T14:54:43.757Z,42.54
2017-12-24T14:57:11.357Z,42.58
2017-12-24T14:59:38.832Z,42.39
2017-12-24T15:02:06.348Z,42.62
2017-12-24T15:04:33.903Z,42.90
2017-12-24T15:07:01.448Z,43.45
2017-12-24T15:09:28.964Z,44.62
2017-12-24T15:11:56.519Z,43.86
2017-12-24T15:14:24.072Z,37.63
2017-12-24T15:16:51.598Z,37.58
2017-12-24T15:19:19.240Z,39.43
2017-12-24T15:21:46.748Z,42.65
2017-12-24T15:24:14.332Z,43.84
2017-12-24T15:26:41.879Z,46.34
2017-12-24T15:29:09.439Z,48.35
2017-12-24T15:31:36.954Z,47.73
2017-12-24T15:34:04.452Z,48.46
2017-12-24T15:36:31.935Z,49.16
2017-12-24T15:38:59.450Z,48.77
2017-12-24T15:41:26.938Z,48.57
2017-12-24T15:43:54.475Z,49.60
2017-12-24T15:46:21.994Z,49.20
2017-12-24T15:48:49.482Z,48.13
2017-12-24T15:51:16.984Z,47.25
2017-12-24T15:53:44.495Z,47.22
2017-12-24T15:56:12.061Z,46.77
2017-12-24T15:58:39.547Z,46.65
2017-12-24T16:01:07.070Z,46.68
2017-12-24T16:03:34.551Z,47.54
2017-12-24T16:06:02.100Z,48.82
2017-12-24T16:08:29.683Z,48.47
2017-12-24T16:10:57.235Z,49.04
2017-12-24T16:13:24.789Z,48.14
2017-12-24T16:15:52.399Z,47.49
2017-12-24T16:18:19.947Z,48.96
2017-12-24T16:20:47.434Z,49.14
2017-12-24T16:23:14.944Z,49.27
2017-12-24T16:25:42.422Z,48.18
2017-12-24T16:28:09.980Z,48.05
2017-12-24T16:30:37.633Z,47.43
2017-12-24T16:33:05.187Z,47.18
2017-12-24T16:35:32.752Z,47.25
2017-12-24T16:38:00.336Z,47.28
2017-12-24T16:40:27.879Z,47.43
2017-12-24T16:42:55.376Z,47.25
2017-12-24T16:45:22.988Z,46.63
2017-12-24T16:47:50.536Z,46.17
2017-12-24T16:50:18.084Z,46.20
2017-12-24T16:52:45.601Z,46.04
2017-12-24T16:55:13.164Z,46.10
2017-12-24T16:57:40.724Z,45.66
2017-12-24T17:00:08.326Z,45.65
2017-12-24T17:02:35.818Z,45.39
2017-12-24T17:05:03.305Z,45.14
2017-12-24T17:07:30.903Z,44.76
2017-12-24T17:09:58.386Z,44.37
2017-12-24T17:12:25.870Z,44.37
2017-12-24T17:14:53.455Z,44.33
2017-12-24T17:17:21.009Z,43.98
2017-12-24T17:19:48.563Z,43.90
2017-12-24T17:22:16.147Z,44.58
2017-12-24T17:24:43.703Z,44.59
2017-12-24T17:27:11.297Z,44.77
2017-12-24T17:29:38.884Z,45.38
2017-12-24T17:32:06.434Z,45.76
2017-12-24T17:34:33.917Z,46.65
2017-12-24T17:37:01.430Z,46.89
2017-12-24T17:39:28.919Z,47.82
2017-12-24T17:41:56.473Z,47.87
2017-12-24T17:44:24.006Z,48.03
2017-12-24T17:46:51.561Z,48.14
2017-12-24T17:49:19.108Z,48.72
2017-12-24T17:51:46.695Z,49.11
2017-12-24T17:54:14.250Z,49.85
2017-12-24T17:56:41.740Z,50.36
2017-12-24T17:59:09.323Z,50.38
2017-12-24T18:01:36.809Z,50.19
2017-12-24T18:04:04.294Z,49.72
2017-12-24T18:06:31.876Z,49.32
2017-12-24T18:08:59.433Z,48.96
2017-12-24T18:11:26.996Z,49.07
2017-12-24T18:13:54.526Z,48.19
2017-12-24T18:16:22.079Z,47.76
2017-12-24T18:18:49.573Z,47.65
2017-12-24T18:21:17.128Z,48.12
2017-12-24T18:23:44.635Z,47.31
2017-12-24T18:26:12.155Z,47.63
2017-12-24T18:28:40.535Z,47.54
2017-12-24T18:31:08.092Z,48.41
2017-12-24T18:33:35.579Z,48.27
2017-12-24T18:36:03.110Z,48.30
2017-12-24T18:38:30.655Z,49.03
2017-12-24T18:40:59.457Z,48.09
2017-12-24T18:43:26.982Z,48.02
2017-12-24T18:45:54.520Z,47.56
2017-12-24T18:48:22.021Z,46.43
2017-12-24T18:50:49.559Z,46.29
2017-12-24T18:53:17.049Z,47.34
2017-12-24T18:55:44.612Z,48.64
2017-12-24T18:58:12.131Z,49.36
2017-12-24T19:00:39.692Z,49.50
2017-12-24T19:03:07.254Z,50.25
2017-12-24T19:05:34.782Z,50.66
2017-12-24T19:08:02.331Z,51.05
2017-12-24T19:10:29.884Z,51.59
2017-12-24T19:12:57.418Z,51.86
2017-12-24T19:15:24.910Z,52.08
2017-12-24T19:17:52.474Z,52.58
2017-12-24T19:20:19.993Z,52.66
2017-12-24T19:22:48.402Z,53.04
2017-12-24T19:25:15.886Z,53.32
2017-12-24T19:27:43.405Z,53.31
2017-12-24T19:30:10.900Z,53.11
2017-12-24T19:32:38.392Z,53.18
2017-12-24T19:35:05.975Z,52.88
2017-12-24T19:37:33.463Z,52.51
2017-12-24T19:40:01.041Z,52.76
2017-12-24T19:42:28.619Z,52.60
2017-12-24T19:44:56.184Z,52.29
2017-12-24T19:47:23.748Z,42.27
2017-12-24T19:49:51.445Z,46.31
2017-12-24T19:52:19.004Z,48.36
2017-12-24T19:54:46.498Z,48.25
2017-12-24T19:57:14.079Z,48.28
2017-12-24T19:59:41.632Z,48.47
2017-12-24T20:02:09.188Z,48.46
2017-12-24T20:04:36.794Z,48.48
2017-12-24T20:07:04.286Z,48.53
2017-12-24T20:09:31.762Z,48.71
2017-12-24T20:11:59.284Z,48.75
2017-12-24T20:14:26.773Z,49.10
2017-12-24T20:16:54.267Z,48.71
2017-12-24T20:19:21.852Z,48.40
2017-12-24T20:21:49.345Z,48.37
2017-12-24T20:24:16.904Z,48.24
2017-12-24T20:26:44.431Z,48.20
2017-12-24T20:29:11.979Z,48.06
2017-12-24T20:31:39.457Z,48.11
2017-12-24T20:34:07.039Z,48.27
2017-12-24T20:36:34.587Z,48.19
2017-12-24T20:39:02.143Z,48.11
2017-12-24T20:41:29.657Z,48.27
2017-12-24T20:43:57.143Z,48.27
2017-12-24T20:46:24.621Z,48.12
2017-12-24T20:48:52.138Z,48.20
2017-12-24T20:51:19.626Z,48.23
2017-12-24T20:53:47.184Z,48.04
2017-12-24T20:56:14.698Z,48.10
2017-12-24T20:58:42.177Z,48.14
2017-12-24T21:01:09.658Z,48.04
2017-12-24T21:03:37.243Z,48.08
2017-12-24T21:06:04.721Z,47.92
2017-12-24T21:08:32.267Z,48.04
2017-12-24T21:10:59.778Z,47.88
2017-12-24T21:13:27.317Z,47.73
2017-12-24T21:15:54.803Z,47.82
2017-12-24T21:18:22.318Z,47.96
2017-12-24T21:20:49.846Z,48.06
2017-12-24T21:23:17.310Z,48.04
2017-12-24T21:25:44.885Z,48.00
2017-12-24T21:28:12.379Z,47.94
2017-12-24T21:30:39.875Z,47.92
2017-12-24T21:33:07.465Z,47.90
2017-12-24T21:35:34.966Z,47.88
2017-12-24T21:38:02.511Z,47.88
2017-12-24T21:40:30.095Z,47.99
2017-12-24T21:42:57.649Z,48.00
2017-12-24T21:45:25.204Z,47.88
2017-12-24T21:47:52.714Z,47.96
2017-12-24T21:50:20.263Z,47.82
2017-12-24T21:52:47.754Z,47.72
2017-12-24T21:55:15.277Z,47.88
2017-12-24T21:57:42.766Z,47.74
2017-12-24T22:00:10.320Z,47.70
2017-12-24T22:02:37.822Z,47.92
2017-12-24T22:05:05.302Z,48.00
2017-12-24T22:07:32.842Z,47.98
2017-12-24T22:10:00.419Z,47.86
2017-12-24T22:12:27.972Z,47.76
2017-12-24T22:14:55.453Z,47.84
2017-12-24T22:17:23.027Z,47.78
2017-12-24T22:19:50.569Z,47.95
2017-12-24T22:22:18.122Z,47.89
2017-12-24T22:24:45.704Z,47.78
2017-12-24T22:27:13.202Z,47.73
2017-12-24T22:29:40.779Z,47.73
2017-12-24T22:32:08.351Z,47.56
2017-12-24T22:34:35.833Z,47.61
2017-12-24T22:37:03.386Z,47.69
2017-12-24T22:39:30.976Z,47.69
2017-12-24T22:41:58.450Z,47.69
2017-12-24T22:44:25.929Z,47.60
2017-12-24T22:46:53.507Z,47.47
2017-12-24T22:49:20.986Z,47.33
2017-12-24T22:51:48.539Z,47.27
2017-12-24T22:54:16.050Z,47.46
2017-12-24T22:56:43.534Z,47.48
2017-12-24T22:59:11.083Z,47.50
2017-12-24T23:01:38.663Z,47.47
2017-12-24T23:04:06.216Z,47.21
2017-12-24T23:06:33.685Z,47.08
2017-12-24T23:09:01.255Z,47.11
2017-12-24T23:11:28.807Z,47.23
2017-12-24T23:13:56.281Z,47.23
2017-12-24T23:16:23.785Z,46.93
2017-12-24T23:18:51.336Z,46.60
2017-12-24T23:21:18.886Z,46.60
2017-12-24T23:23:46.459Z,46.71
2017-12-24T23:26:13.937Z,46.74
2017-12-24T23:28:41.418Z,46.60
2017-12-24T23:31:08.995Z,46.65
2017-12-24T23:33:36.540Z,46.63
2017-12-24T23:36:04.100Z,46.38
2017-12-24T23:38:31.609Z,46.07
2017-12-24T23:40:59.156Z,45.99
2017-12-24T23:43:26.637Z,45.97
2017-12-24T23:45:54.150Z,45.88
2017-12-24T23:48:21.719Z,45.83
2017-12-24T23:50:49.189Z,45.83
2017-12-24T23:53:16.763Z,45.79
2017-12-24T23:55:44.238Z,45.70
2017-12-24T23:58:11.779Z,45.66
